Time;durP1;ratioP1;P1;durP2;ratioP2;P2;SDS_P1;SDS_P2;PMS_P1;PMS_P2;Temp;Humidity;BMP_temperature;BMP_pressure;BME280_temperature;BME280_humidity;BME280_pressure;Samples;Min_cycle;Max_cycle;Signal;HPM_P1;HPM_P2
2023/06/25 00:01:34;;;;;;;6.40;3.33;;;;;;;;;;5043010;28;20029;-80
2023/06/25 00:04:00;;;;;;;6.05;3.53;;;;;;;;;;5057003;28;20010;-80
2023/06/25 00:06:26;;;;;;;5.88;3.38;;;;;;;;;;5049728;28;20025;-82
2023/06/25 00:08:52;;;;;;;6.82;3.40;;;;;;;;;;5038666;28;20049;-82
2023/06/25 00:11:18;;;;;;;4.85;2.80;;;;;;;;;;5050372;28;20098;-80
2023/06/25 00:13:44;;;;;;;5.18;3.30;;;;;;;;;;5047852;28;20044;-80
2023/06/25 00:16:10;;;;;;;8.63;3.47;;;;;;;;;;5043533;28;20048;-79
2023/06/25 00:18:37;;;;;;;4.85;3.03;;;;;;;;;;5053386;28;20049;-82
2023/06/25 00:21:04;;;;;;;6.43;3.35;;;;;;;;;;5049790;28;20073;-80
2023/06/25 00:23:30;;;;;;;6.00;3.60;;;;;;;;;;5044014;28;20133;-79
2023/06/25 00:25:56;;;;;;;7.07;3.20;;;;;;;;;;5042929;28;20040;-80
2023/06/25 00:28:22;;;;;;;6.90;3.67;;;;;;;;;;5041198;28;20037;-81
2023/06/25 00:30:48;;;;;;;5.43;3.97;;;;;;;;;;5049671;28;20040;-81
2023/06/25 00:33:14;;;;;;;5.82;3.50;;;;;;;;;;5066594;22;20054;-80
2023/06/25 00:35:50;;;;;;;5.10;3.65;;;;;;;;;;5033079;28;20053;-81
2023/06/25 00:38:16;;;;;;;6.72;3.88;;;;;;;;;;5042516;28;20058;-80
2023/06/25 00:40:42;;;;;;;7.15;3.45;;;;;;;;;;5029740;28;20022;-83
2023/06/25 00:43:08;;;;;;;6.78;3.45;;;;;;;;;;5032787;28;20071;-79
2023/06/25 00:45:34;;;;;;;5.63;2.90;;;;;;;;;;5043539;28;20026;-80
2023/06/25 00:48:02;;;;;;;5.70;3.45;;;;;;;;;;5041000;28;20049;-81
2023/06/25 00:50:28;;;;;;;4.88;3.53;;;;;;;;;;5043277;28;20076;-80
2023/06/25 00:52:56;;;;;;;5.55;3.53;;;;;;;;;;5021154;28;20022;-80
2023/06/25 00:55:26;;;;;;;6.35;4.15;;;;;;;;;;5041702;28;20064;-79
2023/06/25 00:57:52;;;;;;;6.43;3.75;;;;;;;;;;5032127;28;20060;-80
2023/06/25 01:00:19;;;;;;;8.32;3.95;;;;;;;;;;5040459;28;20018;-81
2023/06/25 01:02:48;;;;;;;5.53;3.33;;;;;;;;;;5034084;28;20129;-81
2023/06/25 01:05:26;;;;;;;4.60;3.30;;;;;;;;;;5041058;28;20105;-80
2023/06/25 01:07:53;;;;;;;4.35;3.45;;;;;;;;;;5028548;28;20113;-81
2023/06/25 01:10:20;;;;;;;8.00;3.50;;;;;;;;;;5040567;28;20026;-79
2023/06/25 01:12:46;;;;;;;4.40;3.00;;;;;;;;;;5048458;28;20236;-80
2023/06/25 01:15:12;;;;;;;10.02;4.07;;;;;;;;;;5031499;28;20046;-80
2023/06/25 01:17:41;;;;;;;10.07;4.30;;;;;;;;;;5032816;28;20086;-84
2023/06/25 01:20:11;;;;;;;7.53;3.95;;;;;;;;;;5021571;28;20036;-80
2023/06/25 01:23:10;;;;;;;7.28;3.10;;;;;;;;;;5120146;27;20456;-80
2023/06/25 01:25:37;;;;;;;5.90;3.40;;;;;;;;;;5089522;28;20028;-80
2023/06/25 01:28:04;;;;;;;7.68;4.22;;;;;;;;;;5082917;28;20080;-80
2023/06/25 01:30:33;;;;;;;6.72;3.65;;;;;;;;;;5074899;28;20044;-81
2023/06/25 01:32:59;;;;;;;6.28;3.40;;;;;;;;;;5108582;28;20022;-81
2023/06/25 01:35:25;;;;;;;7.35;3.67;;;;;;;;;;5072410;28;20080;-80
2023/06/25 01:37:51;;;;;;;5.28;3.42;;;;;;;;;;5083162;28;20039;-80
2023/06/25 01:40:17;;;;;;;5.43;3.60;;;;;;;;;;5108681;28;20028;-80
2023/06/25 01:42:44;;;;;;;6.68;4.00;;;;;;;;;;5105467;22;20040;-81
2023/06/25 01:45:11;;;;;;;7.10;3.67;;;;;;;;;;5085244;28;20088;-82
2023/06/25 01:47:37;;;;;;;5.93;3.70;;;;;;;;;;5081776;28;20040;-81
2023/06/25 01:50:04;;;;;;;10.23;3.88;;;;;;;;;;5081416;28;20024;-80
2023/06/25 01:52:30;;;;;;;5.38;3.67;;;;;;;;;;5079211;28;20009;-80
2023/06/25 01:54:56;;;;;;;7.38;4.53;;;;;;;;;;5076508;28;20027;-81
2023/06/25 01:57:22;;;;;;;5.75;3.80;;;;;;;;;;5077449;28;20013;-81
2023/06/25 01:59:48;;;;;;;6.15;4.47;;;;;;;;;;5085559;28;20025;-80
2023/06/25 02:02:14;;;;;;;7.45;4.53;;;;;;;;;;5081287;28;20048;-80
2023/06/25 02:04:40;;;;;;;7.50;4.32;;;;;;;;;;5079602;28;20052;-83
2023/06/25 02:07:06;;;;;;;6.20;3.80;;;;;;;;;;5084716;28;20039;-80
2023/06/25 02:09:35;;;;;;;9.13;4.90;;;;;;;;;;5082696;28;20035;-80
2023/06/25 02:12:01;;;;;;;5.60;4.45;;;;;;;;;;5099605;28;20544;-80
2023/06/25 02:14:27;;;;;;;6.38;4.93;;;;;;;;;;5085236;28;20040;-83
2023/06/25 02:16:53;;;;;;;6.55;3.88;;;;;;;;;;5074193;28;20033;-86
2023/06/25 02:19:21;;;;;;;6.18;4.03;;;;;;;;;;5097660;28;20044;-80
2023/06/25 02:21:47;;;;;;;4.85;3.60;;;;;;;;;;5085303;28;20049;-80
2023/06/25 02:24:15;;;;;;;5.07;3.80;;;;;;;;;;5082497;28;20020;-81
2023/06/25 02:26:42;;;;;;;5.95;3.72;;;;;;;;;;5077320;28;20029;-83
2023/06/25 02:29:08;;;;;;;10.07;4.32;;;;;;;;;;5081225;28;20027;-80
2023/06/25 02:31:34;;;;;;;5.00;3.97;;;;;;;;;;5085206;28;20090;-81
2023/06/25 02:34:00;;;;;;;6.60;4.07;;;;;;;;;;5069534;28;20017;-80
2023/06/25 02:36:26;;;;;;;6.80;3.88;;;;;;;;;;5067610;28;20032;-81
2023/06/25 02:38:52;;;;;;;6.22;4.07;;;;;;;;;;5066320;28;20021;-82
2023/06/25 02:41:18;;;;;;;5.60;3.92;;;;;;;;;;5063052;28;20105;-81
2023/06/25 02:43:44;;;;;;;8.43;5.35;;;;;;;;;;5068658;28;20214;-80
2023/06/25 02:46:10;;;;;;;6.38;4.40;;;;;;;;;;5069797;28;20072;-81
2023/06/25 02:48:42;;;;;;;7.47;4.80;;;;;;;;;;5065429;28;20096;-82
2023/06/25 02:51:09;;;;;;;8.82;4.00;;;;;;;;;;5067668;28;20013;-81
2023/06/25 02:53:35;;;;;;;5.53;4.43;;;;;;;;;;5082693;28;20021;-81
2023/06/25 02:56:05;;;;;;;6.18;4.10;;;;;;;;;;5066287;28;20050;-81
2023/06/25 02:58:31;;;;;;;7.85;4.80;;;;;;;;;;5067725;28;20017;-81
2023/06/25 03:01:00;;;;;;;7.38;4.45;;;;;;;;;;5085045;28;20043;-81
2023/06/25 03:03:26;;;;;;;6.97;5.07;;;;;;;;;;5070405;28;20100;-81
2023/06/25 03:05:52;;;;;;;6.35;4.13;;;;;;;;;;5065155;28;20032;-80
2023/06/25 03:08:18;;;;;;;7.00;4.50;;;;;;;;;;5065022;28;20038;-80
2023/06/25 03:10:44;;;;;;;6.40;4.35;;;;;;;;;;5082337;28;20029;-80
2023/06/25 03:13:11;;;;;;;10.13;4.45;;;;;;;;;;5083412;28;20105;-80
2023/06/25 03:15:37;;;;;;;6.65;4.43;;;;;;;;;;5068949;28;20024;-81
2023/06/25 03:18:03;;;;;;;9.85;5.00;;;;;;;;;;5075595;28;20035;-81
2023/06/25 03:20:29;;;;;;;8.30;5.00;;;;;;;;;;5084089;28;20025;-80
2023/06/25 03:22:55;;;;;;;8.77;5.03;;;;;;;;;;5071276;28;20037;-80
2023/06/25 03:25:21;;;;;;;7.60;3.75;;;;;;;;;;5067428;28;20025;-80
2023/06/25 03:27:48;;;;;;;10.40;5.65;;;;;;;;;;5083569;28;20026;-82
2023/06/25 03:30:14;;;;;;;6.35;4.35;;;;;;;;;;5071342;28;20033;-83
2023/06/25 03:32:42;;;;;;;8.35;5.75;;;;;;;;;;5069888;28;20020;-79
2023/06/25 03:35:09;;;;;;;7.63;5.45;;;;;;;;;;5066467;28;21086;-82
2023/06/25 03:37:35;;;;;;;10.38;5.57;;;;;;;;;;5085323;28;20060;-80
2023/06/25 03:40:04;;;;;;;15.23;5.95;;;;;;;;;;5086205;28;20029;-81
2023/06/25 03:42:30;;;;;;;9.88;5.63;;;;;;;;;;5068107;28;20055;-80
2023/06/25 03:44:56;;;;;;;8.77;5.03;;;;;;;;;;5069828;28;20048;-81
2023/06/25 03:47:22;;;;;;;9.82;5.70;;;;;;;;;;5074602;28;20047;-82
2023/06/25 03:49:48;;;;;;;6.47;4.88;;;;;;;;;;5061321;28;20047;-81
2023/06/25 03:52:14;;;;;;;9.05;5.40;;;;;;;;;;5084488;28;20025;-80
2023/06/25 03:54:40;;;;;;;10.57;5.95;;;;;;;;;;5059703;28;20025;-80
2023/06/25 03:57:06;;;;;;;8.38;5.35;;;;;;;;;;5070251;28;20041;-82
2023/06/25 03:59:33;;;;;;;7.95;5.72;;;;;;;;;;5069310;28;20063;-81
2023/06/25 04:01:59;;;;;;;9.25;5.40;;;;;;;;;;5069806;28;20040;-82
2023/06/25 04:04:27;;;;;;;9.80;5.53;;;;;;;;;;5079382;28;20033;-81
2023/06/25 04:06:53;;;;;;;12.60;6.30;;;;;;;;;;5070067;28;20020;-80
2023/06/25 04:09:19;;;;;;;8.98;6.15;;;;;;;;;;5063002;28;20032;-80
2023/06/25 04:11:45;;;;;;;8.85;6.60;;;;;;;;;;5068150;28;20033;-81
2023/06/25 04:14:11;;;;;;;8.40;6.25;;;;;;;;;;5062730;28;20043;-81
2023/06/25 04:16:37;;;;;;;11.00;6.57;;;;;;;;;;5066695;28;20029;-80
2023/06/25 04:19:03;;;;;;;8.88;6.28;;;;;;;;;;5067408;28;20306;-80
2023/06/25 04:21:29;;;;;;;17.05;6.35;;;;;;;;;;5084121;28;20059;-80
2023/06/25 04:23:55;;;;;;;8.07;6.25;;;;;;;;;;5068550;28;20037;-79
2023/06/25 04:26:21;;;;;;;10.25;6.13;;;;;;;;;;5063571;28;20060;-81
2023/06/25 04:28:49;;;;;;;11.70;6.10;;;;;;;;;;5065184;28;20021;-81
2023/06/25 04:31:16;;;;;;;8.40;5.63;;;;;;;;;;5069412;28;20043;-81
2023/06/25 04:33:42;;;;;;;10.80;6.38;;;;;;;;;;5064755;28;20029;-82
2023/06/25 04:36:08;;;;;;;8.85;6.30;;;;;;;;;;5059389;28;20088;-82
2023/06/25 04:38:34;;;;;;;9.40;5.65;;;;;;;;;;5064661;28;20041;-79
2023/06/25 04:41:03;;;;;;;9.13;6.03;;;;;;;;;;5066223;28;20060;-81
2023/06/25 04:43:29;;;;;;;11.10;7.15;;;;;;;;;;5063679;28;20029;-81
2023/06/25 04:45:58;;;;;;;8.98;6.28;;;;;;;;;;5059573;28;20121;-80
2023/06/25 04:48:24;;;;;;;11.23;6.57;;;;;;;;;;5064816;28;20663;-82
2023/06/25 04:50:50;;;;;;;14.38;6.85;;;;;;;;;;5064895;28;20028;-79
2023/06/25 04:53:18;;;;;;;12.82;7.18;;;;;;;;;;5068931;28;20025;-80
2023/06/25 04:55:49;;;;;;;9.02;6.28;;;;;;;;;;5080586;28;20017;-80
2023/06/25 04:58:15;;;;;;;9.15;6.78;;;;;;;;;;5066113;28;20033;-81
2023/06/25 05:00:41;;;;;;;8.02;6.32;;;;;;;;;;5064836;28;20176;-80
2023/06/25 05:03:07;;;;;;;11.50;6.55;;;;;;;;;;5071823;28;20020;-80
2023/06/25 05:05:33;;;;;;;8.57;6.22;;;;;;;;;;5080214;28;20032;-81
2023/06/25 05:07:59;;;;;;;11.50;6.50;;;;;;;;;;5082681;28;20016;-80
2023/06/25 05:10:25;;;;;;;9.75;6.93;;;;;;;;;;5071599;28;20056;-80
2023/06/25 05:12:51;;;;;;;10.93;6.10;;;;;;;;;;5080512;28;20024;-80
2023/06/25 05:15:17;;;;;;;8.02;5.85;;;;;;;;;;5064865;28;20009;-81
2023/06/25 05:17:43;;;;;;;8.68;6.15;;;;;;;;;;5065825;28;20024;-80
2023/06/25 05:20:10;;;;;;;8.75;6.75;;;;;;;;;;5064854;28;20143;-80
2023/06/25 05:22:36;;;;;;;8.90;6.10;;;;;;;;;;5083587;28;20042;-80
2023/06/25 05:25:02;;;;;;;8.80;6.25;;;;;;;;;;5065864;28;20077;-80
2023/06/25 05:27:28;;;;;;;8.82;5.88;;;;;;;;;;5069036;28;20139;-81
2023/06/25 05:29:54;;;;;;;7.80;6.20;;;;;;;;;;5064986;28;20021;-81
2023/06/25 05:32:20;;;;;;;8.27;6.32;;;;;;;;;;5074447;28;20021;-81
2023/06/25 05:34:46;;;;;;;9.38;6.90;;;;;;;;;;5065389;28;20048;-81
2023/06/25 05:37:12;;;;;;;9.98;6.15;;;;;;;;;;5065666;28;20022;-80
2023/06/25 05:39:38;;;;;;;16.33;5.93;;;;;;;;;;5066970;28;20049;-81
2023/06/25 05:42:04;;;;;;;11.63;6.68;;;;;;;;;;5061966;28;20028;-80
2023/06/25 05:44:30;;;;;;;9.27;5.95;;;;;;;;;;5081559;28;20017;-79
2023/06/25 05:46:56;;;;;;;10.73;5.60;;;;;;;;;;5062106;28;20153;-80
2023/06/25 05:49:22;;;;;;;8.82;6.55;;;;;;;;;;5061508;28;20471;-80
2023/06/25 05:51:48;;;;;;;9.40;6.13;;;;;;;;;;5066335;28;20035;-80
2023/06/25 05:54:14;;;;;;;9.43;6.13;;;;;;;;;;5083190;28;20024;-80
2023/06/25 05:56:40;;;;;;;10.20;6.28;;;;;;;;;;5070136;28;20024;-80
2023/06/25 05:59:06;;;;;;;6.45;5.28;;;;;;;;;;5064026;28;20033;-80
2023/06/25 06:01:32;;;;;;;8.25;5.78;;;;;;;;;;5067371;28;20053;-80
2023/06/25 06:04:02;;;;;;;7.82;6.00;;;;;;;;;;5071105;28;20005;-80
2023/06/25 06:06:28;;;;;;;7.07;5.60;;;;;;;;;;5062541;28;20025;-79
2023/06/25 06:08:54;;;;;;;8.25;5.47;;;;;;;;;;5086380;28;20017;-81
2023/06/25 06:11:20;;;;;;;11.45;6.32;;;;;;;;;;5067078;28;20036;-80
2023/06/25 06:13:46;;;;;;;13.35;6.22;;;;;;;;;;5080638;28;20032;-83
2023/06/25 06:16:12;;;;;;;7.15;5.30;;;;;;;;;;5063982;28;20072;-82
2023/06/25 06:18:38;;;;;;;12.50;6.78;;;;;;;;;;5060962;28;20538;-86
2023/06/25 06:21:04;;;;;;;10.35;6.00;;;;;;;;;;5058136;28;20037;-86
2023/06/25 06:23:30;;;;;;;8.40;5.45;;;;;;;;;;5054848;28;20086;-85
2023/06/25 06:25:56;;;;;;;9.45;5.68;;;;;;;;;;5069480;28;20044;-83
2023/06/25 06:28:22;;;;;;;8.30;5.32;;;;;;;;;;5054157;28;20033;-85
2023/06/25 06:30:48;;;;;;;8.85;5.43;;;;;;;;;;5056431;28;20059;-84
2023/06/25 06:33:14;;;;;;;9.73;6.13;;;;;;;;;;5056225;28;20024;-86
2023/06/25 06:35:40;;;;;;;8.32;5.38;;;;;;;;;;5054152;28;20025;-84
2023/06/25 06:38:06;;;;;;;7.18;5.20;;;;;;;;;;5052002;28;20437;-86
2023/06/25 06:40:32;;;;;;;7.10;5.68;;;;;;;;;;5055162;28;20040;-85
2023/06/25 06:42:58;;;;;;;7.57;5.47;;;;;;;;;;5063677;28;20032;-83
2023/06/25 06:45:24;;;;;;;6.60;5.25;;;;;;;;;;5056942;28;20048;-84
2023/06/25 06:47:50;;;;;;;6.75;4.93;;;;;;;;;;5057174;28;20025;-86
2023/06/25 06:50:16;;;;;;;8.40;5.32;;;;;;;;;;5069257;28;20025;-87
2023/06/25 06:52:45;;;;;;;8.50;5.40;;;;;;;;;;5068809;28;20041;-85
2023/06/25 06:55:11;;;;;;;8.77;5.00;;;;;;;;;;5062070;28;20179;-85
2023/06/25 06:57:37;;;;;;;7.80;6.15;;;;;;;;;;5062784;28;20040;-86
2023/06/25 07:00:04;;;;;;;7.35;5.28;;;;;;;;;;5067352;28;20454;-85
2023/06/25 07:02:30;;;;;;;6.78;5.55;;;;;;;;;;5053444;28;20060;-84
2023/06/25 07:04:58;;;;;;;7.60;6.00;;;;;;;;;;5051263;28;20025;-86
2023/06/25 07:07:24;;;;;;;8.18;4.68;;;;;;;;;;5068066;28;20025;-85
2023/06/25 07:09:53;;;;;;;6.82;5.68;;;;;;;;;;5069769;28;20460;-85
2023/06/25 07:12:20;;;;;;;8.63;5.32;;;;;;;;;;5053072;28;20021;-87
2023/06/25 07:14:46;;;;;;;9.70;5.63;;;;;;;;;;5044503;28;20037;-86
2023/06/25 07:17:12;;;;;;;5.53;4.85;;;;;;;;;;5070382;28;20039;-87
2023/06/25 07:19:38;;;;;;;7.05;5.40;;;;;;;;;;5052441;28;20104;-86
2023/06/25 07:22:04;;;;;;;6.72;5.03;;;;;;;;;;5046638;28;20532;-87
2023/06/25 07:24:30;;;;;;;7.20;5.22;;;;;;;;;;5052452;28;20064;-87
2023/06/25 07:26:56;;;;;;;9.05;5.72;;;;;;;;;;5045928;28;20053;-87
2023/06/25 07:29:22;;;;;;;7.57;5.60;;;;;;;;;;5048338;28;20020;-86
2023/06/25 07:31:50;;;;;;;6.63;5.18;;;;;;;;;;5052056;28;20036;-87
2023/06/25 07:34:16;;;;;;;6.88;5.53;;;;;;;;;;5067665;28;20028;-88
2023/06/25 07:36:42;;;;;;;6.10;4.88;;;;;;;;;;5044683;28;20056;-87
2023/06/25 07:39:08;;;;;;;6.85;4.72;;;;;;;;;;5044760;28;20039;-89
2023/06/25 07:41:34;;;;;;;5.97;5.15;;;;;;;;;;5049119;28;20020;-86
2023/06/25 07:44:00;;;;;;;9.68;5.20;;;;;;;;;;5042058;28;20080;-87
2023/06/25 07:46:26;;;;;;;8.48;5.50;;;;;;;;;;5052255;28;20021;-86
2023/06/25 07:48:52;;;;;;;6.28;5.20;;;;;;;;;;5050270;28;20491;-83
2023/06/25 07:51:18;;;;;;;9.48;5.05;;;;;;;;;;5046209;28;20109;-84
2023/06/25 07:53:44;;;;;;;5.90;4.93;;;;;;;;;;5044106;28;20036;-84
2023/06/25 07:56:10;;;;;;;10.02;5.03;;;;;;;;;;5040058;28;20038;-84
2023/06/25 07:58:36;;;;;;;9.98;5.40;;;;;;;;;;5045382;28;20817;-85
2023/06/25 08:01:02;;;;;;;7.88;4.80;;;;;;;;;;5047901;28;20112;-84
2023/06/25 08:03:28;;;;;;;7.68;4.63;;;;;;;;;;5046304;28;20025;-84
2023/06/25 08:05:54;;;;;;;7.00;5.00;;;;;;;;;;5037771;28;20045;-82
2023/06/25 08:08:20;;;;;;;7.45;4.45;;;;;;;;;;5044854;28;20017;-82
2023/06/25 08:10:51;;;;;;;7.97;5.05;;;;;;;;;;5044491;28;20081;-84
2023/06/25 08:13:17;;;;;;;7.28;4.85;;;;;;;;;;5044599;28;20061;-87
2023/06/25 08:15:43;;;;;;;13.57;4.07;;;;;;;;;;5061180;28;20064;-85
2023/06/25 08:18:09;;;;;;;5.85;4.53;;;;;;;;;;5038646;28;20179;-84
2023/06/25 08:20:35;;;;;;;6.47;4.65;;;;;;;;;;5052219;28;21740;-84
2023/06/25 08:23:01;;;;;;;6.13;4.68;;;;;;;;;;5047140;28;20068;-83
2023/06/25 08:25:27;;;;;;;7.18;4.50;;;;;;;;;;5046154;28;20540;-84
2023/06/25 08:27:53;;;;;;;9.23;4.50;;;;;;;;;;5047951;28;20021;-84
2023/06/25 08:30:19;;;;;;;6.75;4.82;;;;;;;;;;5046376;28;20434;-83
2023/06/25 08:32:45;;;;;;;7.38;4.45;;;;;;;;;;5051508;28;20056;-83
2023/06/25 08:35:14;;;;;;;7.28;4.60;;;;;;;;;;5047883;28;21676;-83
2023/06/25 08:37:43;;;;;;;7.15;4.03;;;;;;;;;;5065846;28;20115;-87
2023/06/25 08:40:11;;;;;;;6.38;4.80;;;;;;;;;;5043936;28;20043;-86
2023/06/25 08:42:37;;;;;;;8.35;4.68;;;;;;;;;;5050227;28;20020;-85
2023/06/25 08:45:06;;;;;;;5.95;4.88;;;;;;;;;;5047888;28;20109;-86
2023/06/25 08:47:37;;;;;;;5.05;4.10;;;;;;;;;;5043752;28;20041;-87
2023/06/25 08:50:05;;;;;;;11.23;4.43;;;;;;;;;;5050458;28;20025;-87
2023/06/25 08:52:32;;;;;;;6.20;4.10;;;;;;;;;;5047529;28;20037;-85
2023/06/25 08:55:01;;;;;;;7.47;4.50;;;;;;;;;;5064262;28;20747;-86
2023/06/25 08:57:27;;;;;;;7.00;5.20;;;;;;;;;;5040613;28;20033;-86
2023/06/25 08:59:55;;;;;;;6.72;4.65;;;;;;;;;;5050346;28;20746;-85
2023/06/25 09:02:21;;;;;;;5.75;4.47;;;;;;;;;;5068497;28;20075;-86
2023/06/25 09:04:48;;;;;;;8.13;5.32;;;;;;;;;;5044782;28;20029;-85
2023/06/25 09:07:19;;;;;;;4.95;4.30;;;;;;;;;;5042753;28;20021;-86
2023/06/25 09:09:45;;;;;;;4.85;4.03;;;;;;;;;;5038919;28;20112;-86
2023/06/25 09:12:12;;;;;;;6.60;4.50;;;;;;;;;;5060292;28;20037;-86
2023/06/25 09:14:38;;;;;;;6.10;4.30;;;;;;;;;;5050826;28;20021;-85
2023/06/25 09:17:05;;;;;;;5.57;4.45;;;;;;;;;;5045561;28;20098;-87
2023/06/25 09:19:31;;;;;;;7.35;4.25;;;;;;;;;;5065737;28;20031;-86
2023/06/25 09:21:57;;;;;;;5.60;4.65;;;;;;;;;;5045933;28;20021;-86
2023/06/25 09:24:23;;;;;;;5.30;4.45;;;;;;;;;;5066042;28;20025;-86
2023/06/25 09:26:50;;;;;;;5.70;4.85;;;;;;;;;;5045150;28;20029;-86
2023/06/25 09:29:17;;;;;;;5.53;4.05;;;;;;;;;;5043244;28;20514;-87
2023/06/25 09:31:43;;;;;;;6.63;4.38;;;;;;;;;;5051241;28;20036;-86
2023/06/25 09:34:09;;;;;;;5.80;4.20;;;;;;;;;;5049261;28;20064;-86
2023/06/25 09:36:38;;;;;;;7.30;4.55;;;;;;;;;;5052167;28;20052;-86
2023/06/25 09:39:05;;;;;;;6.53;4.45;;;;;;;;;;5045247;28;20029;-87
2023/06/25 09:41:32;;;;;;;4.50;3.85;;;;;;;;;;5045490;28;20029;-86
2023/06/25 09:44:00;;;;;;;4.80;3.85;;;;;;;;;;5053607;28;20044;-87
2023/06/25 09:46:27;;;;;;;5.80;4.13;;;;;;;;;;5044533;28;20025;-85
2023/06/25 09:48:56;;;;;;;6.03;3.90;;;;;;;;;;5069644;28;20110;-87
2023/06/25 09:51:57;;;;;;;4.93;4.15;;;;;;;;;;5046793;28;20029;-86
2023/06/25 09:54:26;;;;;;;4.85;4.30;;;;;;;;;;5067222;28;20025;-85
2023/06/25 09:56:52;;;;;;;8.63;3.95;;;;;;;;;;5044194;28;20121;-86
2023/06/25 09:59:18;;;;;;;4.97;3.40;;;;;;;;;;5046789;28;20044;-85
2023/06/25 10:01:45;;;;;;;5.63;3.50;;;;;;;;;;5070769;28;20033;-86
2023/06/25 10:04:11;;;;;;;5.80;3.97;;;;;;;;;;5055927;28;20025;-85
2023/06/25 10:06:37;;;;;;;6.10;4.20;;;;;;;;;;5071858;28;20025;-87
2023/06/25 10:09:03;;;;;;;4.88;3.55;;;;;;;;;;5047483;28;20035;-86
2023/06/25 10:11:29;;;;;;;7.00;3.65;;;;;;;;;;5066202;28;20120;-86
2023/06/25 10:14:00;;;;;;;6.57;3.92;;;;;;;;;;5044761;28;20037;-86
2023/06/25 10:16:31;;;;;;;5.03;3.88;;;;;;;;;;5070007;28;20025;-86
2023/06/25 10:18:57;;;;;;;5.70;3.83;;;;;;;;;;5049075;28;20025;-86
2023/06/25 10:21:25;;;;;;;5.82;3.70;;;;;;;;;;5045599;28;20028;-87
2023/06/25 10:23:56;;;;;;;4.07;3.65;;;;;;;;;;5050711;28;20017;-84
2023/06/25 10:26:25;;;;;;;5.97;4.30;;;;;;;;;;5044961;28;20466;-85
2023/06/25 10:28:51;;;;;;;4.18;3.28;;;;;;;;;;5068425;28;20028;-85
2023/06/25 10:31:17;;;;;;;7.57;3.95;;;;;;;;;;5045102;28;20101;-85
2023/06/25 10:33:43;;;;;;;4.20;3.80;;;;;;;;;;5048776;28;20036;-85
2023/06/25 10:36:10;;;;;;;5.32;4.00;;;;;;;;;;5050724;28;20029;-85
2023/06/25 10:38:36;;;;;;;6.65;4.15;;;;;;;;;;5052972;28;20489;-85
2023/06/25 10:41:02;;;;;;;5.78;3.90;;;;;;;;;;5069022;28;20032;-86
2023/06/25 10:43:28;;;;;;;4.93;4.22;;;;;;;;;;5054095;28;20053;-85
2023/06/25 10:45:55;;;;;;;5.68;3.72;;;;;;;;;;5069783;28;20049;-86
2023/06/25 10:48:24;;;;;;;6.47;3.63;;;;;;;;;;5044798;28;20032;-86
2023/06/25 10:50:54;;;;;;;4.88;3.70;;;;;;;;;;5043062;28;20017;-85
2023/06/25 10:53:21;;;;;;;4.63;4.15;;;;;;;;;;5068274;28;20029;-87
2023/06/25 10:55:51;;;;;;;7.07;4.25;;;;;;;;;;5070189;28;21758;-86
2023/06/25 10:58:21;;;;;;;5.22;4.13;;;;;;;;;;5048744;28;20446;-85
2023/06/25 11:00:53;;;;;;;9.23;4.03;;;;;;;;;;5049252;28;20028;-85
2023/06/25 11:03:19;;;;;;;6.28;3.80;;;;;;;;;;5045421;28;20504;-86
2023/06/25 11:05:46;;;;;;;5.30;4.22;;;;;;;;;;5068620;28;20037;-87
2023/06/25 11:08:13;;;;;;;5.13;3.55;;;;;;;;;;5070306;28;20490;-84
2023/06/25 11:10:39;;;;;;;8.07;3.92;;;;;;;;;;5043049;28;20040;-84
2023/06/25 11:13:08;;;;;;;5.88;3.92;;;;;;;;;;5049312;28;20048;-85
2023/06/25 11:15:34;;;;;;;4.40;3.70;;;;;;;;;;5043837;28;20033;-86
2023/06/25 11:18:01;;;;;;;4.68;3.80;;;;;;;;;;5053818;28;20033;-85
2023/06/25 11:20:27;;;;;;;3.97;3.58;;;;;;;;;;5050938;28;20040;-85
2023/06/25 11:22:58;;;;;;;6.38;3.95;;;;;;;;;;5063996;28;20040;-86
2023/06/25 11:25:29;;;;;;;7.45;4.05;;;;;;;;;;5049587;28;20017;-86
2023/06/25 11:28:02;;;;;;;6.05;4.15;;;;;;;;;;5047014;28;20031;-86
2023/06/25 11:30:31;;;;;;;6.57;3.72;;;;;;;;;;5044434;28;20028;-84
2023/06/25 11:33:11;;;;;;;4.47;4.07;;;;;;;;;;5046593;28;20052;-85
2023/06/25 11:35:37;;;;;;;8.00;4.35;;;;;;;;;;5052251;28;20032;-86
2023/06/25 11:38:03;;;;;;;6.15;3.88;;;;;;;;;;5068023;28;20098;-85
2023/06/25 11:40:30;;;;;;;4.57;4.05;;;;;;;;;;5052305;28;20335;-85
2023/06/25 11:42:56;;;;;;;5.80;4.38;;;;;;;;;;5065631;28;20462;-85
2023/06/25 11:45:22;;;;;;;6.38;4.28;;;;;;;;;;5045231;28;20079;-85
2023/06/25 11:47:50;;;;;;;5.80;4.05;;;;;;;;;;5049316;28;20028;-84
2023/06/25 11:50:28;;;;;;;5.22;4.22;;;;;;;;;;5072379;28;20021;-86
2023/06/25 11:52:58;;;;;;;5.35;3.97;;;;;;;;;;5045197;28;20044;-85
2023/06/25 11:55:30;;;;;;;4.18;3.78;;;;;;;;;;5053440;28;20055;-84
2023/06/25 11:57:56;;;;;;;3.85;3.17;;;;;;;;;;5052696;28;20096;-87
2023/06/25 12:00:22;;;;;;;5.47;3.50;;;;;;;;;;5048977;28;20549;-82
2023/06/25 12:02:48;;;;;;;4.05;3.17;;;;;;;;;;5041511;28;20028;-79
2023/06/25 12:05:14;;;;;;;6.45;4.50;;;;;;;;;;5041391;28;20881;-87
2023/06/25 12:07:40;;;;;;;6.53;3.50;;;;;;;;;;5067843;28;20022;-86
2023/06/25 12:10:06;;;;;;;4.28;3.60;;;;;;;;;;5044356;28;20022;-87
2023/06/25 12:12:32;;;;;;;4.80;3.90;;;;;;;;;;5050010;28;20100;-86
2023/06/25 12:15:02;;;;;;;5.53;4.28;;;;;;;;;;5055827;28;20053;-87
2023/06/25 12:17:28;;;;;;;6.00;4.32;;;;;;;;;;5044504;28;20021;-86
2023/06/25 12:19:54;;;;;;;4.28;3.50;;;;;;;;;;5070512;28;20044;-86
2023/06/25 12:22:20;;;;;;;4.18;3.72;;;;;;;;;;5057109;28;20500;-86
2023/06/25 12:24:46;;;;;;;5.38;3.97;;;;;;;;;;5067782;28;20114;-86
2023/06/25 12:27:12;;;;;;;4.22;3.33;;;;;;;;;;5048008;28;20036;-89
2023/06/25 12:29:38;;;;;;;3.97;3.38;;;;;;;;;;5067296;28;20017;-87
2023/06/25 12:32:06;;;;;;;4.57;3.60;;;;;;;;;;5050962;28;20082;-87
2023/06/25 12:34:32;;;;;;;5.97;3.60;;;;;;;;;;5049559;28;20033;-89
2023/06/25 12:36:58;;;;;;;3.35;3.00;;;;;;;;;;5042896;28;20362;-87
2023/06/25 12:39:25;;;;;;;3.88;3.15;;;;;;;;;;5069443;28;20025;-86
2023/06/25 12:41:51;;;;;;;3.55;3.20;;;;;;;;;;5041256;28;20029;-87
2023/06/25 12:44:20;;;;;;;4.18;3.47;;;;;;;;;;5062500;28;20091;-87
2023/06/25 12:46:46;;;;;;;3.70;3.20;;;;;;;;;;5049950;28;20099;-88
2023/06/25 12:49:12;;;;;;;6.57;3.47;;;;;;;;;;5047220;28;20064;-88
2023/06/25 12:51:38;;;;;;;5.30;3.30;;;;;;;;;;5040816;28;20484;-88
2023/06/25 12:54:06;;;;;;;3.60;3.22;;;;;;;;;;5065737;28;20067;-88
2023/06/25 12:56:32;;;;;;;3.58;3.22;;;;;;;;;;5046263;28;20031;-79
2023/06/25 12:59:00;;;;;;;4.38;3.25;;;;;;;;;;5041413;28;20033;-77
2023/06/25 13:01:26;;;;;;;5.82;3.85;;;;;;;;;;5040740;28;20024;-78
2023/06/25 13:03:52;;;;;;;3.70;3.00;;;;;;;;;;5041827;28;20862;-78
2023/06/25 13:06:20;;;;;;;3.70;3.30;;;;;;;;;;5046732;28;20075;-79
2023/06/25 13:08:46;;;;;;;4.72;3.58;;;;;;;;;;5038489;28;20025;-86
2023/06/25 13:11:12;;;;;;;5.72;4.15;;;;;;;;;;5048438;28;20465;-87
2023/06/25 13:13:38;;;;;;;5.13;3.20;;;;;;;;;;5042281;28;20028;-87
2023/06/25 13:16:04;;;;;;;4.97;3.30;;;;;;;;;;5061274;28;20027;-85
2023/06/25 13:18:30;;;;;;;4.75;3.42;;;;;;;;;;5051364;28;20033;-86
2023/06/25 13:23:48;;;;;;;4.13;3.67;;;;;;;;;;5047546;28;20030;-85
2023/06/25 13:26:17;;;;;;;4.07;3.65;;;;;;;;;;5050900;28;20028;-88
2023/06/25 13:29:17;;;;;;;4.35;3.45;;;;;;;;;;5051516;28;20029;-86
2023/06/25 13:31:43;;;;;;;4.18;3.60;;;;;;;;;;5045150;28;20034;-85
2023/06/25 13:34:09;;;;;;;5.43;3.60;;;;;;;;;;5048450;28;20032;-88
2023/06/25 13:36:35;;;;;;;4.32;3.60;;;;;;;;;;5045039;28;20604;-88
2023/06/25 13:39:01;;;;;;;5.80;3.78;;;;;;;;;;5044472;28;20064;-86
2023/06/25 13:41:36;;;;;;;4.68;3.55;;;;;;;;;;5052153;28;20126;-87
2023/06/25 13:44:05;;;;;;;3.67;3.10;;;;;;;;;;5050235;28;20480;-88
2023/06/25 13:46:31;;;;;;;3.70;3.30;;;;;;;;;;5046790;28;20473;-86
2023/06/25 13:48:57;;;;;;;4.18;3.50;;;;;;;;;;5048685;28;20067;-87
2023/06/25 13:51:23;;;;;;;4.15;3.40;;;;;;;;;;5050850;28;20127;-88
2023/06/25 13:53:49;;;;;;;3.92;2.95;;;;;;;;;;5044627;28;20033;-88
2023/06/25 13:56:17;;;;;;;3.75;3.28;;;;;;;;;;5051578;28;20031;-87
2023/06/25 13:58:43;;;;;;;4.22;3.47;;;;;;;;;;5045000;28;20033;-87
2023/06/25 14:01:09;;;;;;;4.63;3.33;;;;;;;;;;5065595;28;20029;-86
2023/06/25 14:03:35;;;;;;;2.90;2.70;;;;;;;;;;5043117;28;20101;-86
2023/06/25 14:06:01;;;;;;;4.88;3.30;;;;;;;;;;5049739;28;20168;-89
2023/06/25 14:08:28;;;;;;;4.57;2.97;;;;;;;;;;5045914;28;20017;-86
2023/06/25 14:10:54;;;;;;;4.72;4.15;;;;;;;;;;5043392;28;20126;-86
2023/06/25 14:13:20;;;;;;;5.78;3.80;;;;;;;;;;5043243;28;20421;-86
2023/06/25 14:15:46;;;;;;;5.05;3.10;;;;;;;;;;5046339;28;20033;-86
2023/06/25 14:18:12;;;;;;;5.70;3.50;;;;;;;;;;5051126;28;20025;-86
2023/06/25 14:20:38;;;;;;;3.92;3.25;;;;;;;;;;5043470;28;20022;-86
2023/06/25 14:23:04;;;;;;;3.88;3.03;;;;;;;;;;5046209;28;20033;-86
2023/06/25 14:25:30;;;;;;;3.55;2.80;;;;;;;;;;5065031;28;20086;-85
2023/06/25 14:28:00;;;;;;;3.80;3.40;;;;;;;;;;5064143;28;20029;-86
2023/06/25 14:30:26;;;;;;;3.53;3.22;;;;;;;;;;5065691;28;20483;-88
2023/06/25 14:32:52;;;;;;;4.05;3.42;;;;;;;;;;5051116;28;20110;-88
2023/06/25 14:35:18;;;;;;;3.78;3.40;;;;;;;;;;5045579;28;20438;-89
2023/06/25 14:37:44;;;;;;;3.63;3.25;;;;;;;;;;5044543;28;20085;-89
2023/06/25 14:40:10;;;;;;;4.40;3.17;;;;;;;;;;5044891;28;20063;-91
2023/06/25 14:42:36;;;;;;;3.40;2.90;;;;;;;;;;5047627;28;20044;-88